This is the latest recevied weather packets stored in our database for station/object KQ4WWD. If no packets are shown the sender has not sent any weather packets the latest 10 day(s).
| Time | Temp. | Humidity | Pressure | Rain* | Wind** | Luminosity | Snow |
|---|---|---|---|---|---|---|---|
| 1777076797 | 23.33° C | 85% | 1011.1 hPa | 0 mm | - | 0 W/m² | - |
| 1777076494 | 23.33° C | 85% | 1011.2 hPa | 0 mm | - | 0 W/m² | - |
| 1777076189 | 23.33° C | 84% | 1011.2 hPa | 0 mm | - | 0 W/m² | - |
| 1777075886 | 23.33° C | 85% | 1011.4 hPa | 0 mm | - | 0 W/m² | - |
| 1777075581 | 23.33° C | 84% | 1011.1 hPa | 0 mm | - | 0 W/m² | - |
| 1777075277 | 23.33° C | 83% | 1011.1 hPa | 0 mm | - | 1 W/m² | - |
| 1777074974 | 23.89° C | 83% | 1011.1 hPa | 0 mm | - | 3 W/m² | - |
| 1777074669 | 23.89° C | 83% | 1011.3 hPa | 0 mm | - | 6 W/m² | - |
| 1777074364 | 24.44° C | 82% | 1011.3 hPa | 0 mm | - | 8 W/m² | - |
| 1777074062 | 25° C | 80% | 1011.2 hPa | 0 mm | - | 14 W/m² | - |
| 1777073756 | 25° C | 78% | 1011.1 hPa | 0 mm | - | 21 W/m² | - |
| 1777073453 | 25° C | 77% | 1011 hPa | 0 mm | - | 26 W/m² | - |
| 1777073148 | 25° C | 79% | 1011.1 hPa | 0 mm | - | 31 W/m² | - |
| 1777072846 | 25.56° C | 78% | 1011 hPa | 0 mm | - | 36 W/m² | - |
| 1777072544 | 26.67° C | 71% | 1011.1 hPa | 0 mm | - | 44 W/m² | - |
| 1777072244 | 26.11° C | 70% | 1011.1 hPa | 0 mm | - | 55 W/m² | - |
| 1777071939 | 25.56° C | 71% | 1011 hPa | 0 mm | - | 81 W/m² | - |
| 1777071636 | 25.56° C | 73% | 1010.7 hPa | 0 mm | - | 92 W/m² | - |
| 1777071332 | 25° C | 76% | 1010.8 hPa | 0 mm | - | 105 W/m² | - |
| 1777071027 | 24.44° C | 76% | 1010.8 hPa | 0 mm | - | 104 W/m² | - |
| 1777070724 | 25° C | 76% | 1011.1 hPa | 0 mm | - | 85 W/m² | - |
| 1777070421 | 25.56° C | 75% | 1010.7 hPa | 0 mm | - | 100 W/m² | - |
| 1777070120 | 24.44° C | 77% | 1010.7 hPa | 0 mm | - | 177 W/m² | - |
| 1777069815 | 23.33° C | 84% | 1011.1 hPa | 0 mm | - | 199 W/m² | - |
| 1777069513 | 21.67° C | 87% | 1011.1 hPa | 0 mm | - | 154 W/m² | - |
* Rain latest hour (hover to see other rain measurements)
** Current wind speed in m/s (hover to see current wind gust speed)